createdAt,value
2019-05-02T00:03:05.682Z,322.65
2019-05-02T00:08:00.405Z,322.34
2019-05-02T00:13:00.351Z,320.77
2019-05-02T00:18:02.603Z,324.55
2019-05-02T00:23:00.422Z,331.05
2019-05-02T00:28:00.372Z,325.51
2019-05-02T00:33:00.367Z,329.08
2019-05-02T00:38:03.718Z,333.05
2019-05-02T00:43:00.348Z,340.25
2019-05-02T00:48:00.357Z,338.17
2019-05-02T00:53:00.377Z,338.17
2019-05-02T00:58:00.370Z,338.17
2019-05-02T01:03:00.406Z,344.51
2019-05-02T01:08:02.863Z,344.51
2019-05-02T01:13:00.373Z,356.78
2019-05-02T01:18:05.604Z,353.35
2019-05-02T01:23:00.330Z,351.84
2019-05-02T01:28:00.269Z,353.35
2019-05-02T01:33:05.964Z,347.04
2019-05-02T01:38:00.303Z,357.94
2019-05-02T01:43:01.576Z,341.31
2019-05-02T01:48:00.313Z,353.35
2019-05-02T01:53:00.265Z,349.98
2019-05-02T01:58:00.269Z,349.98
2019-05-02T02:03:08.816Z,348.87
2019-05-02T02:08:00.304Z,352.59
2019-05-02T02:13:05.351Z,355.24
2019-05-02T02:18:00.267Z,353.35
2019-05-02T02:23:00.239Z,352.22
2019-05-02T02:28:01.092Z,335.76
2019-05-02T02:33:09.383Z,342.72
2019-05-02T02:38:00.235Z,345.59
2019-05-02T02:43:31.565Z,347.04
2019-05-02T02:48:02.706Z,344.51
2019-05-02T02:53:00.272Z,338.17
2019-05-02T02:58:06.510Z,336.79
2019-05-02T03:03:00.192Z,338.51
2019-05-02T03:08:07.107Z,334.06
2019-05-02T03:13:00.272Z,335.08
2019-05-02T03:18:02.228Z,337.82
2019-05-02T03:23:00.240Z,340.6
2019-05-02T03:28:00.166Z,343.08
2019-05-02T03:33:11.741Z,324.23
2019-05-02T03:38:00.144Z,326.15
2019-05-02T03:43:00.187Z,327.45
2019-05-02T03:48:00.192Z,338.51
2019-05-02T03:53:00.194Z,345.95
2019-05-02T03:58:00.180Z,326.8
2019-05-02T04:03:02.663Z,296.33
2019-05-02T04:08:00.109Z,308.5
2019-05-02T04:13:00.210Z,308.5
2019-05-02T04:18:00.160Z,311.11
2019-05-02T04:23:00.138Z,299.28
2019-05-02T04:28:00.107Z,295.01
2019-05-02T04:33:00.127Z,313.18
2019-05-02T04:38:09.837Z,288.07
2019-05-02T04:43:08.027Z,285.09
2019-05-02T04:48:04.232Z,307.35
2019-05-02T04:53:00.129Z,336.44
2019-05-02T04:58:02.007Z,302.02
2019-05-02T05:03:00.129Z,291.63
2019-05-02T05:08:01.298Z,314.67
2019-05-02T05:13:00.093Z,309.66
2019-05-02T05:18:09.695Z,337.13
2019-05-02T05:23:00.073Z,339.9
2019-05-02T05:28:06.664Z,312.88
2019-05-02T05:33:00.076Z,324.23
2019-05-02T05:38:00.126Z,343.08
2019-05-02T05:48:01.258Z,338.51
2019-05-02T05:53:00.769Z,315.57
2019-05-02T05:58:15.425Z,277.67
2019-05-02T06:03:13.276Z,354.86
2019-05-02T06:08:00.748Z,320.46
2019-05-02T06:13:10.784Z,352.59
2019-05-02T06:18:06.051Z,343.08
2019-05-02T06:23:01.402Z,351.1
2019-05-02T06:28:06.732Z,344.15
2019-05-02T06:33:00.736Z,314.07
2019-05-02T06:38:00.709Z,313.77
2019-05-02T06:43:09.252Z,345.23
2019-05-02T06:48:01.356Z,385.44
2019-05-02T06:53:09.393Z,371.62
2019-05-02T06:58:07.722Z,359.1
2019-05-02T07:03:09.997Z,450.29
2019-05-02T07:08:00.826Z,492.9
2019-05-02T07:13:13.195Z,435.4
2019-05-02T07:18:10.539Z,561.26
2019-05-02T07:23:00.682Z,544.87
2019-05-02T07:28:09.030Z,459.21
2019-05-02T07:33:02.400Z,463.65
2019-05-02T07:38:00.674Z,585.73
2019-05-02T07:43:00.670Z,642.9
2019-05-02T07:48:01.763Z,677.93
2019-05-02T07:53:09.104Z,552.04
2019-05-02T07:58:06.746Z,535.75
2019-05-02T08:03:00.660Z,535.75
2019-05-02T08:08:00.625Z,553.86
2019-05-02T08:13:00.653Z,538.32
2019-05-02T08:18:00.638Z,516.79
2019-05-02T08:23:00.628Z,389.47
2019-05-02T08:28:00.648Z,478.51
2019-05-02T08:33:00.630Z,520.39
2019-05-02T08:38:00.640Z,573.72
2019-05-02T08:43:08.826Z,639.84
2019-05-02T08:48:06.539Z,589.32
2019-05-02T08:53:00.627Z,633.2
2019-05-02T08:58:00.586Z,671.16
2019-05-02T09:03:04.419Z,753.08
2019-05-02T09:08:00.592Z,667.16
2019-05-02T09:13:02.762Z,618.63
2019-05-02T09:18:02.971Z,609.09
2019-05-02T09:23:01.846Z,691.18
2019-05-02T09:28:02.013Z,640.45
2019-05-02T09:33:06.628Z,621.49
2019-05-02T09:38:01.921Z,544.43
2019-05-02T09:43:04.748Z,716.23
2019-05-02T09:48:07.871Z,803.47
2019-05-02T10:44:12.972Z,1303.3
2019-05-02T10:49:22.730Z,1421.78
2019-05-02T10:54:12.130Z,1110.65
2019-05-02T10:59:11.931Z,1123.64
2019-05-02T11:04:12.991Z,1267.67
2019-05-02T11:09:12.222Z,1259.36
2019-05-02T11:14:12.121Z,1369.65
2019-05-02T11:19:13.315Z,1638.25
2019-05-02T11:24:14.492Z,1760.47
2019-05-02T11:29:12.256Z,1794.53
2019-05-02T11:34:12.626Z,1625.38
2019-05-02T11:39:32.723Z,1478.02
2019-05-02T11:44:12.367Z,1495.28
2019-05-02T11:49:12.401Z,1478.02
2019-05-02T11:54:13.128Z,1885.07
2019-05-02T11:59:15.025Z,1750.16
2019-05-02T12:04:16.811Z,1928.31
2019-05-02T12:09:12.791Z,1457.2
2019-05-02T12:14:12.427Z,1738.85
2019-05-02T12:19:15.007Z,2048.74
2019-05-02T12:24:12.797Z,2001.49
2019-05-02T12:29:14.779Z,2239.8
2019-05-02T12:34:14.752Z,2165.86
2019-05-02T12:39:14.760Z,1956.36
2019-05-02T12:44:14.743Z,1773.24
2019-05-02T12:49:27.616Z,1665.64
2019-05-02T12:54:14.736Z,1340.98
2019-05-02T12:59:14.729Z,1879.8
2019-05-02T13:04:14.757Z,1417.28
2019-05-02T13:09:14.738Z,2673.96
2019-05-02T13:14:19.785Z,1700.38
2019-05-02T13:19:14.937Z,1652.33
2019-05-02T13:24:16.730Z,1744.49
2019-05-02T13:29:14.727Z,2090.13
2019-05-02T13:34:15.105Z,2093.39
2019-05-02T13:39:14.702Z,1870.65
2019-05-02T13:44:14.685Z,1635.26
2019-05-02T13:49:14.722Z,1362.71
2019-05-02T13:54:14.703Z,693.32
2019-05-02T13:59:14.678Z,1271.27
2019-05-02T14:04:15.267Z,1193.43
2019-05-02T14:09:22.033Z,1177.76
2019-05-02T14:14:14.694Z,2061.3
2019-05-02T14:19:14.645Z,1259.36
2019-05-02T14:24:14.900Z,1257.01
2019-05-02T14:29:16.492Z,1216.09
2019-05-02T14:34:19.171Z,1030.65
2019-05-02T14:39:14.676Z,1735.48
2019-05-02T14:44:22.031Z,1624.4
2019-05-02T14:49:21.299Z,2337.1
2019-05-02T14:54:14.616Z,2634.67
2019-05-02T14:59:20.176Z,3446.51
2019-05-02T15:04:14.676Z,3493.51
2019-05-02T15:09:21.530Z,2589.03
2019-05-02T15:14:22.039Z,2870.86
2019-05-02T15:19:14.604Z,3394.32
2019-05-02T15:24:14.632Z,3662.35
2019-05-02T15:29:24.968Z,3407.22
2019-05-02T15:34:14.581Z,2684.63
2019-05-02T15:44:14.627Z,1922.8
2019-05-02T15:49:14.596Z,2075.62
2019-05-02T15:54:20.431Z,1787.38
2019-05-02T15:59:14.630Z,1295.76
2019-05-02T16:04:21.763Z,1588.9
2019-05-02T16:09:21.695Z,1693.95
2019-05-02T16:14:14.596Z,1424.79
2019-05-02T16:19:29.058Z,1388.03
2019-05-02T16:24:15.068Z,1455.63
2019-05-02T16:29:26.358Z,1433.9
2019-05-02T16:34:15.145Z,1116.18
2019-05-02T16:39:15.625Z,819.62
2019-05-02T16:44:14.535Z,1178.79
2019-05-02T16:49:18.732Z,1271.27
2019-05-02T16:54:14.560Z,547.98
2019-05-02T16:59:21.050Z,786.55
2019-05-02T17:04:16.758Z,661.25
2019-05-02T17:09:14.531Z,782.89
2019-05-02T17:14:14.524Z,730.25
2019-05-02T17:19:14.650Z,658.66
2019-05-02T17:24:21.943Z,596.12
2019-05-02T17:29:21.233Z,472.12
2019-05-02T17:39:26.161Z,715.47
2019-05-02T17:44:25.600Z,736.65
2019-05-02T17:49:36.748Z,696.92
2019-05-02T17:54:26.447Z,607.99
2019-05-02T17:59:33.447Z,580.16
2019-05-02T18:06:55.371Z,617.49
2019-05-02T18:30:28.592Z,511.67
2019-05-02T18:35:19.619Z,431.21
2019-05-02T19:19:22.694Z,595.59
2019-05-02T19:31:44.458Z,569.35
2019-05-02T19:36:36.630Z,590.88
2019-05-02T19:41:43.810Z,652.89
2019-05-02T19:46:39.124Z,537.03
2019-05-02T19:51:36.556Z,437.1
2019-05-02T19:56:47.397Z,346.31
2019-05-02T20:01:36.588Z,361.46
2019-05-02T20:06:36.598Z,374.99
2019-05-02T20:11:37.324Z,427.92
2019-05-02T20:16:45.765Z,376.7
2019-05-02T20:21:38.347Z,373.3
2019-05-02T20:26:38.320Z,432.88
2019-05-02T20:31:38.327Z,425.48
2019-05-02T20:36:38.343Z,450.89
2019-05-02T20:41:41.878Z,363.45
2019-05-02T20:46:38.311Z,373.72
2019-05-02T20:51:38.369Z,481.94
2019-05-02T20:56:38.308Z,369.13
2019-05-02T21:01:38.326Z,367.49
2019-05-02T21:06:43.947Z,400.37
2019-05-02T21:11:38.271Z,323.92
2019-05-02T21:26:42.271Z,428.46
2019-05-02T21:31:42.690Z,372.88
2019-05-02T21:36:45.415Z,388.34
2019-05-02T21:41:42.471Z,372.04
2019-05-02T21:46:42.500Z,423.33
2019-05-02T21:51:42.716Z,456.71
2019-05-02T21:56:43.155Z,447.29
2019-05-02T22:01:42.360Z,446.1
2019-05-02T22:06:42.919Z,393.8
2019-05-02T22:11:43.195Z,443.16
2019-05-02T22:16:42.309Z,430.38
2019-05-02T22:21:43.177Z,441.41
2019-05-02T22:26:43.678Z,400.14
2019-05-02T22:36:41.732Z,396.36
2019-05-02T22:41:42.106Z,421.74
2019-05-02T22:46:43.655Z,404.23
2019-05-02T22:51:46.185Z,415.22
2019-05-02T22:56:42.767Z,437.1
2019-05-02T23:01:42.407Z,435.4
2019-05-02T23:06:44.298Z,419.89
2019-05-02T23:11:42.797Z,411.66
2019-05-02T23:16:42.996Z,428.46
2019-05-02T23:21:42.539Z,383.46
2019-05-02T23:26:42.305Z,390.14
2019-05-02T23:31:42.384Z,380.86
